Latest Weather Observations for Gold Coast Seaway

IDQ60901

Issued at 11:05 am EST Friday 29 August 2014 (issued every 10 minutes, with the page automatically refreshed every 10 minutes)

About weather observations | Map of Brisbane area stations | Latest observations for Brisbane area | Other Formats
Station Details ID: 040764 Name: GOLD COAST SEAWAY Lat: -27.94 Lon: 153.43 Height: 2.98 m
Data from the previous 72 hours. | See also: Recent months at Gold Coast Seaway
Date/Time
EST
Tmp

°C
App
Tmp
°C
Dew
Point
°C
Rel
Hum
%
Delta-T

°C
Wind Press
QNH
hPa
Press
MSL
hPa
Rain
since
9 am
mm
Dir
 
Spd
km/h
Gust
km/h
Spd
kts
Gust
kts
29/11:00am 20.4 15.1 8.4 46 6.2 SSE 26 32 14 17 1021.8 1021.8 0.0
29/10:30am 20.1 15.1 8.1 46 6.2 S 24 32 13 17 1022.2 1022.2 0.0
29/10:00am 19.6 14.5 7.7 46 6.1 S 24 33 13 18 1022.6 1022.6 0.0
29/09:30am 19.2 14.3 6.7 44 6.3 S 22 32 12 17 1022.6 1022.6 0.0
29/09:00am 18.4 13.1 6.9 47 5.7 S 24 32 13 17 1022.7 1022.7 0.0
29/08:30am 17.6 15.0 7.9 53 4.9 SSW 11 15 6 8 1022.5 1022.5 0.0
29/08:00am 16.6 14.3 7.3 54 4.6 SSW 9 13 5 7 1022.5 1022.5 0.0
29/07:30am 15.5 13.7 7.8 60 3.8 SSW 7 11 4 6 1022.3 1022.3 0.0
29/07:00am 14.2 12.0 7.7 65 3.2 SW 9 11 5 6 1021.9 1021.9 0.0
29/06:30am 12.8 9.5 7.9 72 2.4 SSW 15 19 8 10 1021.7 1021.7 0.0
29/06:00am 12.1 8.6 7.2 72 2.3 S 15 20 8 11 1021.5 1021.5 0.0
29/05:30am 12.4 8.9 7.3 71 2.5 S 15 19 8 10 1021.2 1021.2 0.0
29/05:00am 12.2 9.8 7.1 71 2.4 S 9 15 5 8 1021.1 1021.1 0.0
29/04:30am 13.2 10.5 7.4 68 2.8 SSW 11 15 6 8 1020.8 1020.8 0.0
29/04:00am 13.5 11.4 8.1 70 2.7 SSW 9 13 5 7 1020.8 1020.8 0.0
29/03:30am 13.4 10.8 7.8 69 2.8 SSW 11 15 6 8 1020.8 1020.8 0.0
29/03:00am 12.8 10.5 7.5 70 2.6 SSW 9 13 5 7 1021.0 1021.0 0.0
29/02:30am 13.5 11.3 7.7 68 2.9 SSW 9 15 5 8 1020.9 1020.9 0.0
29/02:00am 14.1 12.0 8.1 67 3.0 WSW 9 15 5 8 1020.9 1020.9 0.0
29/01:30am 13.9 10.8 7.4 65 3.2 S 13 19 7 10 1021.0 1021.0 0.0
29/01:00am 14.9 10.8 7.9 63 3.5 S 19 28 10 15 1021.3 1021.3 0.0
29/12:30am 14.7 11.0 8.0 64 3.3 S 17 22 9 12 1021.4 1021.4 0.0
29/12:00am 15.1 10.5 8.1 63 3.5 S 22 32 12 17 1021.3 1021.3 0.0
 
Date/Time
EST
Tmp

°C
App
Tmp
°C
Dew
Point
°C
Rel
Hum
%
Delta-T

°C
Wind Press
QNH
hPa
Press
MSL
hPa
Rain
since
9 am
mm
Dir
 
Spd
km/h
Gust
km/h
Spd
kts
Gust
kts
28/11:30pm 15.7 10.4 8.4 62 3.7 S 26 37 14 20 1021.3 1021.3 0.0
28/11:00pm 15.6 10.5 9.1 65 3.3 S 26 32 14 17 1021.1 1021.1 0.0
28/10:30pm 15.6 11.5 8.8 64 3.5 S 20 28 11 15 1021.3 1021.3 0.0
28/10:00pm 15.6 11.9 9.3 66 3.2 S 19 28 10 15 1021.5 1021.5 0.0
28/09:30pm 15.9 11.6 9.3 65 3.4 S 22 30 12 16 1021.7 1021.7 0.0
28/09:00pm 15.8 11.8 9.0 64 3.5 S 20 30 11 16 1021.7 1021.7 0.0
28/08:30pm 16.2 10.4 9.6 65 3.4 S 30 48 16 26 1021.7 1021.7 0.0
28/08:21pm 16.2 9.9 9.6 65 3.4 S 33 48 18 26 1021.7 1021.7 0.0
28/08:00pm 16.4 12.1 9.3 63 3.7 S 22 30 12 16 1021.6 1021.6 0.0
28/07:30pm 16.4 12.9 8.9 61 3.9 S 17 24 9 13 1021.2 1021.2 0.0
28/07:00pm 16.7 12.0 9.1 61 3.9 S 24 39 13 21 1021.0 1021.0 0.0
28/06:44pm 17.3 11.7 8.7 57 4.4 S 28 48 15 26 1020.8 1020.8 0.0
28/06:30pm 17.2 12.6 8.1 55 4.6 S 22 30 12 16 1020.5 1020.5 0.0
28/06:00pm 17.7 12.2 7.4 51 5.2 S 26 35 14 19 1020.1 1020.1 0.0
28/05:30pm 18.1 11.8 7.2 49 5.5 S 30 48 16 26 1019.6 1019.6 0.0
28/05:00pm 19.1 12.1 6.9 45 6.1 S 33 54 18 29 1019.0 1019.0 0.0
28/04:32pm 19.6 14.0 8.9 50 5.6 S 28 48 15 26 1018.6 1018.6 0.0
28/04:30pm 19.6 13.8 9.5 52 5.4 S 30 39 16 21 1018.6 1018.6 0.0
28/04:04pm 19.6 12.2 10.0 54 5.1 S 39 57 21 31 1018.1 1018.1 0.0
28/04:00pm 19.8 11.5 9.4 51 5.5 S 43 57 23 31 1018.0 1018.0 0.0
28/03:30pm 19.7 12.2 12.0 61 4.3 S 43 54 23 29 1017.4 1017.4 0.0
28/03:00pm 20.8 13.8 11.2 54 5.3 S 39 48 21 26 1017.1 1017.1 0.0
28/02:30pm 21.5 13.8 10.3 49 6.1 S 41 54 22 29 1016.9 1016.9 0.0
28/02:00pm 21.0 12.7 10.2 50 5.8 S 44 63 24 34 1016.8 1016.8 0.0
28/01:59pm 21.1 13.0 10.6 51 5.7 S 44 63 24 34 1016.8 1016.8 0.0
28/01:30pm 21.1 12.6 10.6 51 5.7 S 46 59 25 32 1016.6 1016.6 0.0
28/01:00pm 21.0 11.5 11.3 54 5.4 SSE 52 65 28 35 1016.7 1016.7 0.0
28/12:45pm 21.4 11.9 11.1 52 5.7 S 52 70 28 38 1016.6 1016.6 0.0
28/12:30pm 20.7 9.9 11.1 54 5.3 S 59 72 32 39 1016.5 1016.5 0.0
28/12:00pm 20.5 11.0 11.2 55 5.1 S 52 70 28 38 1016.4 1016.4 0.0
28/11:30am 20.4 10.7 11.9 58 4.7 S 54 74 29 40 1016.3 1016.3 0.0
28/11:29am 20.6 11.2 12.6 60 4.5 S 54 72 29 39 1016.3 1016.3 0.0
28/11:00am 20.3 12.1 13.0 63 4.1 S 48 65 26 35 1016.4 1016.4 0.0
28/10:32am 19.7 12.5 12.0 61 4.3 S 41 59 22 32 1016.3 1016.3 0.0
28/10:30am 19.3 12.3 11.3 60 4.4 S 39 54 21 29 1016.3 1016.3 0.0
28/10:00am 19.0 12.2 13.2 69 3.3 S 41 59 22 32 1016.4 1016.4 0.0
28/09:32am 17.8 12.0 12.7 72 2.8 S 35 54 19 29 1016.1 1016.1 0.0
28/09:30am 17.7 12.3 12.8 73 2.7 S 33 44 18 24 1016.1 1016.1 0.0
28/09:00am 17.3 12.4 13.8 80 2.0 S 32 50 17 27 1016.1 1016.1 9.8
28/08:32am 16.7 11.8 13.8 83 1.6 S 32 52 17 28 1016.0 1016.0 9.8
28/08:30am 16.7 12.1 13.6 82 1.7 S 30 44 16 24 1015.9 1015.9 9.6
28/08:21am 16.6 12.5 13.7 83 1.6 S 28 46 15 25 1015.5 1015.5 9.6
28/08:00am 16.5 12.6 14.3 87 1.3 S 28 39 15 21 1015.1 1015.1 9.6
28/07:32am 15.6 11.7 14.3 92 0.7 S 28 46 15 25 1014.8 1014.8 9.4
28/07:30am 15.6 12.1 14.5 93 0.6 S 26 35 14 19 1014.8 1014.8 9.4
28/07:00am 15.0 12.4 14.8 99 0.1 S 22 35 12 19 1014.4 1014.4 9.4
28/06:30am 14.9 12.2 14.7 99 0.1 SSW 22 32 12 17 1014.2 1014.2 8.2
28/06:11am 14.9 9.8 14.7 99 0.1 S 35 54 19 29 1013.8 1013.8 8.0
28/06:00am 15.4 8.7 15.2 99 0.1 S 44 57 24 31 1013.9 1013.9 7.6
28/05:54am 15.2 9.8 15.0 99 0.1 S 37 56 20 30 1013.9 1013.9 7.4
28/05:30am 14.9 9.4 14.7 99 0.1 S 37 48 20 26 1013.6 1013.6 6.6
28/05:00am 15.3 8.2 15.0 98 0.2 S 46 56 25 30 1013.3 1013.3 5.2
28/04:37am 14.8 10.6 13.5 92 0.7 S 28 48 15 26 1013.2 1013.2 4.4
28/04:30am 15.0 11.1 13.4 90 0.9 S 26 37 14 20 1013.0 1013.0 3.4
28/04:00am 14.8 10.9 13.2 90 0.9 S 26 44 14 24 1012.7 1012.7 3.4
28/03:30am 14.7 12.1 13.1 90 0.9 SSW 19 28 10 15 1012.9 1012.9 3.0
28/03:00am 14.5 11.2 12.9 90 0.9 SSW 22 32 12 17 1012.9 1012.9 2.8
28/02:30am 14.4 11.6 12.6 89 1.0 SSW 19 33 10 18 1013.3 1013.3 2.4
28/02:00am 14.7 10.2 12.6 87 1.1 SSW 28 43 15 23 1013.1 1013.1 1.8
28/01:30am 15.0 10.9 11.6 80 1.8 S 24 33 13 18 1013.6 1013.6 1.2
28/01:00am 15.1 11.4 10.3 73 2.5 S 20 37 11 20 1013.7 1013.7 1.2
28/12:30am 14.9 9.0 10.3 74 2.4 S 32 41 17 22 1013.8 1013.8 1.2
28/12:12am 15.2 10.1 10.6 74 2.4 S 28 48 15 26 1013.8 1013.8 1.2
28/12:00am 15.3 9.7 10.3 72 2.6 S 30 43 16 23 1013.7 1013.7 1.2
 
Date/Time
EST
Tmp

°C
App
Tmp
°C
Dew
Point
°C
Rel
Hum
%
Delta-T

°C
Wind Press
QNH
hPa
Press
MSL
hPa
Rain
since
9 am
mm
Dir
 
Spd
km/h
Gust
km/h
Spd
kts
Gust
kts
27/11:46pm 15.5 10.4 10.5 72 2.6 S 28 48 15 26 1013.6 1013.6 1.2
27/11:30pm 15.3 10.6 10.7 74 2.4 S 26 39 14 21 1013.8 1013.8 1.2
27/11:00pm 15.1 10.7 10.5 74 2.4 S 24 35 13 19 1013.9 1013.9 1.2
27/10:30pm 13.4 10.5 9.8 79 1.8 S 15 17 8 9 1014.4 1014.4 1.2
27/10:00pm 12.8 11.1 8.5 75 2.1 WSW 7 9 4 5 1013.9 1013.9 1.2
27/09:30pm 13.9 11.6 8.9 72 2.5 WNW 11 15 6 8 1013.5 1013.5 1.2
27/09:00pm 14.0 12.0 8.8 71 2.6 W 9 13 5 7 1013.5 1013.5 1.2
27/08:30pm 14.4 11.7 8.8 69 2.8 W 13 15 7 8 1013.4 1013.4 1.2
27/08:00pm 14.6 12.3 9.0 69 2.8 WNW 11 15 6 8 1013.5 1013.5 1.2
27/07:30pm 15.0 12.7 8.9 67 3.1 W 11 13 6 7 1013.1 1013.1 1.2
27/07:00pm 15.4 13.1 8.9 65 3.3 W 11 15 6 8 1013.5 1013.5 1.2
27/06:30pm 15.9 12.0 8.6 62 3.7 W 19 26 10 14 1013.0 1013.0 1.2
27/06:00pm 16.5 12.5 9.0 61 3.9 W 20 28 11 15 1012.7 1012.7 1.2
27/05:30pm 17.4 13.0 8.8 57 4.4 W 22 30 12 16 1012.5 1012.5 1.2
27/05:00pm 19.1 16.9 9.3 53 5.2 SSW 11 15 6 8 1012.3 1012.3 1.2
27/04:30pm 19.7 17.2 9.6 52 5.4 WSW 13 17 7 9 1011.9 1011.9 1.2
27/04:00pm 19.6 15.9 9.5 52 5.4 SSW 19 24 10 13 1011.9 1011.9 1.2
27/03:30pm 19.7 14.0 9.9 53 5.2 S 30 37 16 20 1011.8 1011.8 1.2
27/03:00pm 19.7 13.7 10.9 57 4.8 S 33 48 18 26 1012.0 1012.0 1.2
27/02:38pm 20.0 15.2 11.7 59 4.6 S 28 46 15 25 1012.1 1012.1 1.0
27/02:30pm 19.9 16.4 12.2 61 4.3 S 22 35 12 19 1012.3 1012.3 1.0
27/02:00pm 17.6 16.8 12.9 74 2.6 SW 9 15 5 8 1012.9 1012.9 1.0
27/01:30pm 18.9 16.1 11.5 62 4.1 SSW 17 26 9 14 1013.1 1013.1 0.0
27/01:00pm 20.4 17.1 11.6 57 4.9 S 20 30 11 16 1013.0 1013.0 0.0
27/12:30pm 19.9 16.4 10.9 56 4.9 S 20 30 11 16 1013.5 1013.5 0.0
27/12:00pm 19.4 14.3 11.9 62 4.2 SSE 30 37 16 20 1013.9 1013.9 0.0
27/11:30am 20.5 15.8 12.0 58 4.7 SSE 28 32 15 17 1014.4 1014.4 0.0
27/11:00am 21.7 17.6 12.8 57 5.1 S 26 32 14 17 1014.7 1014.7 0.0
27/10:30am 21.7 18.7 10.5 49 6.1 SSE 17 24 9 13 1015.2 1015.2 0.0
27/10:00am 21.4 20.6 12.8 58 4.9 ESE 9 11 5 6 1015.5 1015.5 0.0
27/09:30am 20.3 19.1 11.5 57 4.9 S 9 13 5 7 1015.7 1015.7 0.0
27/09:00am 19.0 18.1 11.3 61 4.2 NW 7 11 4 6 1015.8 1015.8 0.0
27/08:30am 17.5 16.4 11.8 69 3.1 NW 9 13 5 7 1015.8 1015.8 0.0
27/08:00am 16.6 15.4 11.7 73 2.7 NW 9 11 5 6 1015.5 1015.5 0.0
27/07:30am 14.9 13.8 11.9 82 1.6 SW 9 15 5 8 1015.2 1015.2 0.0
27/07:00am 13.5 12.4 11.9 90 0.9 SW 9 11 5 6 1014.7 1014.7 0.0
27/06:30am 12.3 10.5 11.0 92 0.7 SW 11 13 6 7 1014.4 1014.4 0.0
27/06:00am 12.2 10.8 10.9 92 0.7 W 9 11 5 6 1014.3 1014.3 0.0
27/05:30am 12.1 10.1 10.3 89 0.9 S 11 13 6 7 1014.3 1014.3 0.0
27/05:00am 12.7 11.2 10.4 86 1.2 SSW 9 13 5 7 1014.2 1014.2 0.0
27/04:30am 12.8 11.5 10.0 83 1.4 SW 7 11 4 6 1014.2 1014.2 0.0
27/04:00am 13.2 12.0 10.4 83 1.5 WNW 7 11 4 6 1014.1 1014.1 0.0
27/03:30am 14.1 11.9 10.9 81 1.7 WNW 13 17 7 9 1014.3 1014.3 0.0
27/03:00am 13.9 11.6 11.6 86 1.2 NW 15 17 8 9 1014.4 1014.4 0.0
27/02:30am 13.6 12.4 11.7 88 1.0 W 9 11 5 6 1014.8 1014.8 0.0
27/02:00am 13.9 12.6 11.2 84 1.4 SW 9 11 5 6 1014.9 1014.9 0.0
27/01:30am 14.1 12.8 11.1 82 1.6 SSW 9 11 5 6 1015.2 1015.2 0.0
27/01:00am 14.6 13.4 11.6 82 1.6 W 9 11 5 6 1015.3 1015.3 0.0
27/12:30am 14.6 13.4 11.7 83 1.6 WSW 9 11 5 6 1015.7 1015.7 0.0
27/12:00am 14.5 13.2 11.3 81 1.7 WSW 9 9 5 5 1015.9 1015.9 0.0
 
Date/Time
EST
Tmp

°C
App
Tmp
°C
Dew
Point
°C
Rel
Hum
%
Delta-T

°C
Wind Press
QNH
hPa
Press
MSL
hPa
Rain
since
9 am
mm
Dir
 
Spd
km/h
Gust
km/h
Spd
kts
Gust
kts
26/11:30pm 15.2 14.1 11.8 80 1.8 SW 9 11 5 6 1016.0 1016.0 0.0
26/11:00pm 15.7 14.6 11.9 78 2.1 SW 9 11 5 6 1016.2 1016.2 0.0
26/10:30pm 16.1 15.0 11.9 76 2.3 SW 9 11 5 6 1016.2 1016.2 0.0
26/10:00pm 16.5 13.3 11.9 74 2.5 S 20 32 11 17 1016.4 1016.4 0.0
26/09:30pm 16.6 13.4 11.9 74 2.6 S 20 32 11 17 1016.5 1016.5 0.0
26/09:00pm 16.6 13.4 11.9 74 2.6 S 20 28 11 15 1016.7 1016.7 0.0
26/08:30pm 17.0 13.6 12.5 75 2.5 S 22 30 12 16 1016.7 1016.7 0.0
26/08:00pm 17.1 14.1 12.6 75 2.5 S 20 30 11 16 1016.7 1016.7 0.0
26/07:30pm 17.3 14.6 12.8 75 2.5 S 19 30 10 16 1016.6 1016.6 0.0
26/07:00pm 17.6 14.0 12.9 74 2.6 S 24 35 13 19 1016.4 1016.4 0.0
26/06:30pm 17.9 13.3 13.6 76 2.4 S 30 39 16 21 1016.2 1016.2 0.0
26/06:00pm 18.0 14.4 13.1 73 2.8 S 24 33 13 18 1016.0 1016.0 0.0
26/05:30pm 18.2 13.2 13.3 73 2.8 S 32 39 17 21 1015.8 1015.8 0.0
26/05:00pm 19.1 13.2 13.5 70 3.2 S 37 46 20 25 1015.4 1015.4 0.0
26/04:30pm 19.6 13.6 13.3 67 3.6 S 37 46 20 25 1015.2 1015.2 0.0
26/04:00pm 20.5 15.1 13.9 66 3.8 S 35 43 19 23 1015.0 1015.0 0.0
26/03:30pm 21.2 15.5 13.1 60 4.6 S 35 44 19 24 1014.8 1014.8 0.0
26/03:00pm 21.1 15.4 14.3 65 4.0 SSE 37 43 20 23 1014.7 1014.7 0.0
26/02:30pm 20.9 14.5 14.3 66 3.8 SSE 41 50 22 27 1014.8 1014.8 0.0
26/02:00pm 22.0 17.4 14.6 63 4.3 SSE 32 37 17 20 1014.9 1014.9 0.0
26/01:30pm 22.5 18.2 13.3 56 5.3 SSE 28 35 15 19 1015.3 1015.3 0.0
26/01:00pm 22.4 18.5 14.5 61 4.6 SSE 28 32 15 17 1015.8 1015.8 0.0
26/12:30pm 21.0 18.3 13.4 62 4.4 S 20 28 11 15 1016.4 1016.4 0.0
26/12:00pm 19.8 15.2 13.5 67 3.6 S 30 35 16 19 1016.9 1016.9 0.0
26/11:30am 20.2 15.3 13.6 66 3.8 SSE 32 39 17 21 1017.5 1017.5 0.0

Latest Capital City Observations: Canberra | Sydney | Melbourne | Brisbane | Adelaide | Perth | Hobart | Darwin

Other Formats:

Comma delimited format used in spreadsheet applications
http://www.bom.gov.au/fwo/IDQ60901/IDQ60901.94580.axf

JavaScript Object Notation format (JSON) in row-major order
http://www.bom.gov.au/fwo/IDQ60901/IDQ60901.94580.json